Time;durP1;ratioP1;P1;durP2;ratioP2;P2;SDS_P1;SDS_P2;PMS_P1;PMS_P2;Temp;Humidity;BMP_temperature;BMP_pressure;BME280_temperature;BME280_humidity;BME280_pressure;Samples;Min_cycle;Max_cycle;Signal;HPM_P1;HPM_P2
2021/03/05 00:04:29;;;;;;;8.40;4.45;;;;;;;1.26;100.00;100314.87;253327;1109;104705;-78
2021/03/05 00:09:31;;;;;;;9.33;5.07;;;;;;;1.22;100.00;100314.87;253203;1109;104319;-78
2021/03/05 00:14:32;;;;;;;7.17;4.90;;;;;;;1.23;100.00;100319.26;253177;1109;104319;-79
2021/03/05 00:19:33;;;;;;;13.28;4.83;;;;;;;1.15;100.00;100315.77;253368;1109;104392;-79
2021/03/05 00:24:34;;;;;;;6.70;4.30;;;;;;;1.09;100.00;100319.31;253575;1109;104265;-78
2021/03/05 00:29:36;;;;;;;6.50;3.87;;;;;;;1.16;100.00;100326.30;257252;1107;104606;-80
2021/03/05 00:34:37;;;;;;;10.63;4.43;;;;;;;1.09;100.00;100317.55;257560;1109;104205;-79
2021/03/05 00:39:38;;;;;;;6.65;3.47;;;;;;;1.07;100.00;100321.92;254317;1108;104235;-78
2021/03/05 00:44:39;;;;;;;8.00;3.65;;;;;;;1.08;100.00;100322.81;252721;1108;104429;-78
2021/03/05 00:49:40;;;;;;;7.97;3.70;;;;;;;1.05;100.00;100317.55;252858;1109;104316;-78
2021/03/05 00:54:42;;;;;;;7.97;3.85;;;;;;;0.99;100.00;100320.19;254512;1109;104237;-77
2021/03/05 00:59:43;;;;;;;6.58;3.42;;;;;;;0.90;100.00;100323.72;255972;1109;105022;-78
2021/03/05 01:04:44;;;;;;;4.25;3.42;;;;;;;0.96;100.00;100318.45;254760;1109;104622;-80
2021/03/05 01:09:45;;;;;;;9.63;3.87;;;;;;;0.92;100.00;100316.69;253114;1109;104457;-78
2021/03/05 01:14:47;;;;;;;7.70;3.80;;;;;;;0.84;100.00;100315.86;253416;1109;104338;-79
2021/03/05 01:19:48;;;;;;;7.90;3.12;;;;;;;0.86;100.00;100314.97;253206;1109;104316;-79
2021/03/05 01:24:50;;;;;;;5.93;3.63;;;;;;;0.86;100.00;100317.59;253163;1109;104457;-78
2021/03/05 01:29:51;;;;;;;8.00;3.30;;;;;;;0.88;100.00;100307.09;253176;1109;104338;-79
2021/03/05 01:34:53;;;;;;;5.58;2.95;;;;;;;0.71;100.00;100310.59;253163;1109;104355;-78
2021/03/05 01:39:54;;;;;;;4.65;2.33;;;;;;;0.67;100.00;100308.86;254662;1109;104389;-78
2021/03/05 01:44:55;;;;;;;6.10;3.47;;;;;;;0.77;100.00;100309.73;256377;1109;104313;-78
2021/03/05 01:49:57;;;;;;;6.72;2.95;;;;;;;0.69;100.00;100320.24;256320;1109;104267;-79
2021/03/05 01:54:58;;;;;;;4.70;3.17;;;;;;;0.66;100.00;100321.99;256478;1109;104172;-79
2021/03/05 01:59:59;;;;;;;5.05;2.77;;;;;;;0.65;100.00;100323.72;256318;1109;104374;-78
2021/03/05 02:05:00;;;;;;;4.67;2.85;;;;;;;0.68;100.00;100330.72;254531;1108;104693;-78
2021/03/05 02:10:05;;;;;;;5.37;2.90;;;;;;;0.61;100.00;100324.61;253249;1109;104693;-78
2021/03/05 02:15:07;;;;;;;5.62;2.60;;;;;;;0.57;100.00;100333.34;253211;1109;104214;-80
2021/03/05 02:20:24;;;;;;;7.65;2.87;;;;;;;0.61;100.00;100332.48;253185;1109;104265;-78
2021/03/05 02:25:28;;;;;;;3.90;2.17;;;;;;;0.60;100.00;100330.73;252973;1109;104453;-78
2021/03/05 02:30:35;;;;;;;3.07;2.10;;;;;;;0.56;100.00;100336.86;253108;1109;104267;-78
2021/03/05 02:35:37;;;;;;;5.20;2.25;;;;;;;0.48;100.00;100334.22;252814;1109;104341;-79
2021/03/05 02:40:43;;;;;;;5.50;2.37;;;;;;;0.53;100.00;100336.85;253056;1109;104310;-79
2021/03/05 02:45:51;;;;;;;5.92;2.55;;;;;;;0.45;100.00;100349.97;252958;1107;104268;-80
2021/03/05 02:50:58;;;;;;;3.58;2.10;;;;;;;0.44;100.00;100340.35;252762;1109;104348;-79
2021/03/05 02:56:04;;;;;;;5.65;2.55;;;;;;;0.43;100.00;100349.95;253152;1109;104397;-79
2021/03/05 03:01:08;;;;;;;5.35;2.52;;;;;;;0.37;100.00;100347.33;253395;1109;104638;-81
2021/03/05 03:06:11;;;;;;;4.60;2.08;;;;;;;0.35;100.00;100353.45;253163;1109;105848;-80
2021/03/05 03:11:13;;;;;;;4.72;2.62;;;;;;;0.40;100.00;100355.21;252716;1109;106530;-79
2021/03/05 03:16:16;;;;;;;7.25;3.10;;;;;;;0.31;100.00;100368.30;253030;1109;104354;-80
2021/03/05 03:21:20;;;;;;;5.90;2.83;;;;;;;0.29;100.00;100364.79;253067;1109;104441;-79
2021/03/05 03:26:23;;;;;;;3.62;2.00;;;;;;;0.28;100.00;100371.80;252820;1109;104229;-79
2021/03/05 03:31:25;;;;;;;3.67;2.37;;;;;;;0.22;100.00;100363.03;252592;1108;104291;-79
2021/03/05 03:36:27;;;;;;;5.85;3.12;;;;;;;0.20;100.00;100383.15;253172;1109;104730;-79
2021/03/05 03:41:29;;;;;;;6.53;2.73;;;;;;;0.23;100.00;100383.14;253228;1109;104338;-78
2021/03/05 03:46:31;;;;;;;6.03;2.77;;;;;;;0.20;100.00;100385.77;253243;1109;104718;-79
2021/03/05 03:51:38;;;;;;;4.70;2.50;;;;;;;0.21;100.00;100387.52;253235;1109;104382;-77
2021/03/05 03:56:42;;;;;;;3.62;2.62;;;;;;;0.24;100.00;100388.41;253246;1109;104270;-78
2021/03/05 04:01:46;;;;;;;4.95;2.40;;;;;;;0.21;100.00;100392.77;253230;1108;104740;-78
2021/03/05 04:06:52;;;;;;;7.28;2.72;;;;;;;0.11;100.00;100397.98;253233;1109;104341;-78
2021/03/05 04:11:55;;;;;;;6.90;3.55;;;;;;;0.11;100.00;100402.33;253120;1109;104734;-78
2021/03/05 04:16:56;;;;;;;6.63;3.37;;;;;;;0.09;100.00;100410.19;253216;1109;104705;-79
2021/03/05 04:21:57;;;;;;;4.85;2.72;;;;;;;0.05;100.00;100415.42;252756;1109;104265;-79
2021/03/05 04:27:05;;;;;;;5.20;3.25;;;;;;;0.06;100.00;100418.06;253037;1109;104640;-76
2021/03/05 04:32:06;;;;;;;5.67;2.95;;;;;;;0.08;100.00;100432.03;252883;1108;104267;-76
2021/03/05 04:37:07;;;;;;;4.28;2.67;;;;;;;0.08;100.00;100432.03;252667;1109;114535;-76
2021/03/05 04:42:09;;;;;;;7.20;3.30;;;;;;;0.01;100.00;100425.02;252142;1109;115024;-76
2021/03/05 04:47:10;;;;;;;6.55;3.52;;;;;;;0.01;100.00;100434.64;252834;1112;114426;-76
2021/03/05 04:52:12;;;;;;;5.25;3.72;;;;;;;-0.10;100.00;100439.83;252735;1112;114440;-77
2021/03/05 04:57:13;;;;;;;5.55;3.25;;;;;;;-0.09;100.00;100436.34;252617;1112;114674;-78
2021/03/05 05:02:14;;;;;;;5.42;3.45;;;;;;;-0.09;100.00;100441.59;252338;1109;114657;-76
2021/03/05 05:07:15;;;;;;;7.83;3.95;;;;;;;-0.14;100.00;100457.28;252375;1109;114678;-77
2021/03/05 05:12:18;;;;;;;7.35;4.20;;;;;;;-0.18;100.00;100453.77;252457;1109;114615;-78
2021/03/05 05:17:19;;;;;;;10.20;4.55;;;;;;;-0.21;100.00;100464.22;252861;1110;114925;-79
2021/03/05 05:22:21;;;;;;;7.60;4.50;;;;;;;-0.24;100.00;100463.33;252688;1110;115131;-78
2021/03/05 05:27:22;;;;;;;7.80;3.80;;;;;;;-0.30;100.00;100472.06;252783;1110;114873;-79
2021/03/05 05:32:23;;;;;;;6.70;3.50;;;;;;;-0.30;100.00;100479.91;252900;1112;114663;-79
2021/03/05 05:37:24;;;;;;;5.70;3.40;;;;;;;-0.36;100.00;100482.50;253129;1111;114705;-80
2021/03/05 05:42:26;;;;;;;8.38;3.90;;;;;;;-0.41;100.00;100489.43;256101;1111;114567;-82
2021/03/05 05:47:29;;;;;;;7.55;4.00;;;;;;;-0.43;100.00;100499.91;254861;1110;115039;-77
2021/03/05 05:52:32;;;;;;;5.03;3.35;;;;;;;-0.41;100.00;100507.77;253555;1111;104325;-79
2021/03/05 05:57:36;;;;;;;5.72;3.80;;;;;;;-0.45;100.00;100514.72;253654;1111;104387;-79
2021/03/05 06:02:41;;;;;;;;;;;;;;;-0.39;100.00;100520.00;253723;1111;104321;-79
2021/03/05 06:07:43;;;;;;;6.80;3.27;;;;;;;-0.40;100.00;100533.99;253046;1110;104342;-79
2021/03/05 06:12:47;;;;;;;7.30;3.80;;;;;;;-0.38;100.00;100554.95;252940;1111;104284;-80
2021/03/05 06:17:49;;;;;;;8.10;4.00;;;;;;;-0.36;100.00;100553.23;254086;1112;104364;-80
2021/03/05 06:23:11;;;;;;;7.93;4.77;;;;;;;-0.39;100.00;100564.53;254703;1112;104389;-78
2021/03/05 06:28:17;;;;;;;5.53;4.55;;;;;;;-0.49;100.00;100576.69;255452;1111;104236;-78
2021/03/05 06:33:22;;;;;;;7.33;4.92;;;;;;;-0.41;100.00;100581.11;256731;1111;104284;-80
2021/03/05 06:38:43;;;;;;;;;;;;;;;-0.30;100.00;100595.19;255627;1112;104271;-78
2021/03/05 06:43:55;;;;;;;6.08;4.22;;;;;;;-0.30;100.00;100605.66;254336;1112;104312;-79
2021/03/05 06:48:58;;;;;;;7.83;4.87;;;;;;;-0.17;100.00;100609.23;254358;1110;104313;-78
2021/03/05 06:54:15;;;;;;;6.72;4.60;;;;;;;-0.27;100.00;100607.42;253446;1111;104383;-80
2021/03/05 06:59:18;;;;;;;7.07;4.13;;;;;;;-0.42;100.00;100616.05;253185;1112;104335;-79
2021/03/05 07:04:28;;;;;;;6.45;4.03;;;;;;;-0.25;100.00;100624.05;253754;1111;104971;-80
2021/03/05 07:09:37;;;;;;;9.75;4.47;;;;;;;-0.24;100.00;100631.02;253190;1109;104348;-77
2021/03/05 07:14:41;;;;;;;6.20;5.35;;;;;;;-0.18;100.00;100631.95;253504;1112;104322;-80
2021/03/05 07:19:43;;;;;;;6.43;4.57;;;;;;;-0.09;100.00;100635.52;253243;1110;104271;-79
2021/03/05 07:24:49;;;;;;;8.80;4.95;;;;;;;0.00;100.00;100643.45;253126;1109;104341;-79
2021/03/05 07:29:55;;;;;;;7.33;4.27;;;;;;;0.10;100.00;100650.50;252946;1112;104446;-79
2021/03/05 07:35:12;;;;;;;9.48;4.87;;;;;;;0.05;100.00;100649.61;253189;1110;104338;-79
2021/03/05 07:40:15;;;;;;;7.42;4.70;;;;;;;0.07;100.00;100663.58;254968;1110;112260;-78
2021/03/05 07:45:17;;;;;;;10.82;5.53;;;;;;;0.14;100.00;100670.62;256492;1112;104242;-77
2021/03/05 07:50:26;;;;;;;5.12;3.92;;;;;;;0.18;100.00;100668.03;256777;1112;104349;-79
2021/03/05 07:55:38;;;;;;;7.50;4.37;;;;;;;0.27;100.00;100671.59;254244;1112;104424;-78
2021/03/05 08:00:47;;;;;;;11.35;5.78;;;;;;;0.39;100.00;100670.80;255920;1112;104217;-78
2021/03/05 08:05:50;;;;;;;7.03;4.10;;;;;;;0.45;100.00;100676.08;255352;1111;104393;-79
2021/03/05 08:10:57;;;;;;;7.67;4.37;;;;;;;0.54;100.00;100669.14;255360;1111;104347;-79
2021/03/05 08:16:45;;;;;;;9.85;4.70;;;;;;;0.62;100.00;100672.69;253812;1112;104318;-81
2021/03/05 08:21:57;;;;;;;6.05;4.00;;;;;;;0.63;100.00;100687.56;253560;1111;108817;-78
2021/03/05 08:27:08;;;;;;;10.33;5.03;;;;;;;0.82;100.00;100674.52;253607;1112;104344;-77
2021/03/05 08:32:35;;;;;;;13.75;4.53;;;;;;;0.89;99.80;100681.55;253679;1112;104306;-78
2021/03/05 08:37:44;;;;;;;7.03;4.87;;;;;;;1.06;97.84;100679.00;253634;1112;104673;-78
2021/03/05 08:42:50;;;;;;;7.93;3.90;;;;;;;1.20;96.66;100681.68;253514;1112;104268;-79
2021/03/05 08:48:00;;;;;;;7.28;4.35;;;;;;;1.07;95.75;100692.12;253441;1112;104280;-79
2021/03/05 08:53:12;;;;;;;10.18;4.67;;;;;;;1.18;97.18;100694.78;253446;1112;105066;-80
2021/03/05 08:58:16;;;;;;;7.78;3.70;;;;;;;1.03;95.66;100702.59;253777;1111;104657;-79
2021/03/05 09:03:18;;;;;;;6.25;3.47;;;;;;;1.46;94.44;100705.37;253616;1111;104684;-80
2021/03/05 09:08:25;;;;;;;6.40;3.50;;;;;;;1.45;93.40;100708.00;256866;1112;104267;-78
2021/03/05 09:13:33;;;;;;;8.05;3.72;;;;;;;1.48;92.64;100708.02;256549;1112;104283;-80
2021/03/05 09:18:38;;;;;;;7.20;3.52;;;;;;;1.43;92.96;100711.50;255182;1112;104277;-80
2021/03/05 09:23:42;;;;;;;4.92;3.33;;;;;;;1.26;90.71;100718.47;253680;1112;104347;-79
2021/03/05 09:28:49;;;;;;;6.10;2.57;;;;;;;1.35;87.67;100713.22;253793;1112;104360;-79
2021/03/05 09:33:50;;;;;;;5.83;2.52;;;;;;;1.57;85.64;100708.92;253736;1112;104699;-80
2021/03/05 09:38:57;;;;;;;3.60;2.55;;;;;;;1.87;87.14;100712.44;253646;1111;104251;-80
2021/03/05 09:44:07;;;;;;;5.37;2.10;;;;;;;1.84;85.24;100716.81;253720;1111;104287;-79
2021/03/05 09:49:25;;;;;;;4.27;2.07;;;;;;;1.79;82.24;100723.83;253510;1111;104251;-79
2021/03/05 09:54:40;;;;;;;2.20;1.40;;;;;;;2.01;78.53;100717.72;253519;1111;104271;-80
2021/03/05 09:59:46;;;;;;;2.52;1.55;;;;;;;1.99;76.42;100729.98;253380;1110;105463;-80
2021/03/05 10:04:50;;;;;;;3.33;1.57;;;;;;;1.89;72.11;100736.13;253638;1111;104377;-82
2021/03/05 10:10:06;;;;;;;4.35;2.05;;;;;;;1.78;72.08;100744.00;253541;1112;104348;-79
2021/03/05 10:15:08;;;;;;;4.42;2.15;;;;;;;2.31;71.64;100739.65;253455;1110;104313;-80
2021/03/05 10:20:11;;;;;;;2.83;1.40;;;;;;;2.73;66.93;100746.61;253521;1112;104342;-80
2021/03/05 10:25:12;;;;;;;3.42;1.60;;;;;;;2.51;68.59;100757.17;253449;1110;104360;-80
2021/03/05 10:30:14;;;;;;;3.60;2.30;;;;;;;2.49;67.87;100769.44;253497;1112;104323;-81
2021/03/05 10:35:16;;;;;;;1.75;1.30;;;;;;;2.23;67.27;100770.33;253441;1112;104347;-80
2021/03/05 10:40:18;;;;;;;4.85;1.80;;;;;;;2.11;66.21;100779.09;253432;1111;104383;-81
2021/03/05 10:45:21;;;;;;;5.83;2.33;;;;;;;2.36;64.44;100785.24;253285;1110;104322;-80
2021/03/05 10:50:22;;;;;;;6.65;3.35;;;;;;;2.87;58.41;100781.69;253289;1109;104300;-80
2021/03/05 10:55:23;;;;;;;3.30;1.23;;;;;;;3.39;57.30;100778.01;253377;1111;104319;-79
2021/03/05 11:00:25;;;;;;;1.00;0.80;;;;;;;2.92;55.87;100784.31;253442;1111;105221;-78
2021/03/05 11:05:26;;;;;;;3.98;0.72;;;;;;;2.50;57.76;100793.12;253771;1112;104361;-78
2021/03/05 11:10:27;;;;;;;2.27;0.53;;;;;;;3.00;56.20;100783.41;253509;1110;104344;-81
2021/03/05 11:15:29;;;;;;;0.93;0.60;;;;;;;3.74;54.46;100802.43;253667;1112;104347;-80
2021/03/05 11:20:31;;;;;;;3.00;0.93;;;;;;;3.46;56.49;100785.00;253502;1110;104757;-77
2021/03/05 11:25:32;;;;;;;1.37;0.80;;;;;;;3.54;55.12;100790.23;253490;1110;104319;-80
2021/03/05 11:30:33;;;;;;;2.98;0.88;;;;;;;4.38;52.59;100784.41;252718;1112;104332;-81
2021/03/05 11:35:35;;;;;;;1.80;0.80;;;;;;;4.22;48.53;100781.03;253472;1112;104290;-79
2021/03/05 11:40:36;;;;;;;1.82;1.10;;;;;;;6.21;47.24;100784.04;253753;1112;104304;-78
2021/03/05 11:45:38;;;;;;;2.05;0.65;;;;;;;4.16;45.68;100787.22;253845;1110;104274;-80
2021/03/05 11:50:39;;;;;;;2.83;1.10;;;;;;;3.29;50.15;100794.72;253767;1110;104284;-79
2021/03/05 11:55:40;;;;;;;2.55;1.20;;;;;;;3.15;52.02;100794.78;253826;1112;104316;-80
2021/03/05 12:00:42;;;;;;;2.50;1.20;;;;;;;3.12;52.25;100798.31;253791;1112;104242;-80
2021/03/05 12:05:43;;;;;;;3.77;1.50;;;;;;;7.46;43.32;100795.94;253505;1112;104328;-79
2021/03/05 12:10:44;;;;;;;2.35;1.40;;;;;;;8.51;38.01;100788.27;253384;1109;104460;-80
2021/03/05 12:15:45;;;;;;;1.62;0.85;;;;;;;4.93;42.95;100799.75;253518;1112;105457;-79
2021/03/05 12:20:47;;;;;;;1.30;0.80;;;;;;;10.91;31.92;100786.48;257111;1112;104232;-79
2021/03/05 12:25:48;;;;;;;2.90;1.07;;;;;;;7.29;34.81;100791.88;258473;1110;104252;-79
2021/03/05 12:30:50;;;;;;;1.42;0.57;;;;;;;10.67;33.39;100794.39;258265;1111;102967;-80
2021/03/05 12:35:51;;;;;;;2.45;1.02;;;;;;;7.38;37.54;100803.17;258510;1111;103024;-79
2021/03/05 12:40:52;;;;;;;2.65;1.00;;;;;;;5.58;39.84;100806.95;257856;1112;104182;-79
2021/03/05 12:45:53;;;;;;;2.50;1.62;;;;;;;4.60;42.22;100828.23;258509;1111;104176;-80
2021/03/05 12:50:55;;;;;;;5.15;2.52;;;;;;;4.91;44.34;100827.98;259140;1111;104133;-79
2021/03/05 12:55:56;;;;;;;2.77;1.80;;;;;;;3.93;45.60;100835.76;259523;1112;103130;-79
2021/03/05 13:00:58;;;;;;;1.40;1.00;;;;;;;5.78;42.69;100837.55;258561;1111;104129;-79
2021/03/05 13:05:59;;;;;;;2.70;1.30;;;;;;;7.44;39.78;100830.46;257518;1112;104102;-80
2021/03/05 13:11:00;;;;;;;2.87;0.90;;;;;;;9.54;33.76;100832.52;255629;1112;104351;-80
2021/03/05 13:16:03;;;;;;;1.65;1.10;;;;;;;9.31;34.67;100837.60;253792;1109;104342;-80
2021/03/05 13:21:05;;;;;;;4.78;0.93;;;;;;;6.19;39.72;100833.52;253576;1111;104310;-79
2021/03/05 13:26:14;;;;;;;2.73;2.23;;;;;;;4.55;41.62;100842.36;253343;1112;104650;-81
2021/03/05 13:31:16;;;;;;;1.72;1.15;;;;;;;3.89;43.99;100848.97;253386;1112;104349;-80
2021/03/05 13:36:18;;;;;;;3.12;1.60;;;;;;;3.58;44.76;100847.34;253406;1112;104752;-79
2021/03/05 13:41:19;;;;;;;2.33;1.52;;;;;;;3.35;46.96;100858.84;253967;1112;104319;-80
2021/03/05 13:46:20;;;;;;;6.47;2.30;;;;;;;2.57;57.63;100867.70;253545;1112;104331;-79
2021/03/05 13:51:22;;;;;;;2.58;2.08;;;;;;;2.81;64.02;100881.77;253463;1111;104409;-79
2021/03/05 13:56:23;;;;;;;4.07;2.53;;;;;;;4.28;60.75;100890.08;253700;1112;104700;-79
2021/03/05 14:01:25;;;;;;;4.53;2.27;;;;;;;4.94;56.94;100891.34;253293;1111;104360;-78
2021/03/05 14:06:26;;;;;;;3.37;2.40;;;;;;;3.17;62.70;100901.05;254065;1111;104268;-78
2021/03/05 14:11:27;;;;;;;3.90;2.87;;;;;;;2.40;67.90;100907.16;253954;1110;104267;-79
2021/03/05 14:16:28;;;;;;;7.47;4.57;;;;;;;2.23;71.03;100913.25;252788;1112;104871;-79
2021/03/05 14:21:30;;;;;;;5.33;2.60;;;;;;;2.49;67.58;100911.55;252993;1110;104326;-78
2021/03/05 14:26:32;;;;;;;4.33;2.80;;;;;;;2.79;64.56;100900.17;253093;1110;104345;-79
2021/03/05 14:31:34;;;;;;;4.33;2.90;;;;;;;5.04;55.73;100923.84;253276;1111;104651;-79
2021/03/05 14:36:36;;;;;;;3.45;2.47;;;;;;;5.88;51.65;100915.93;253024;1112;104270;-78
2021/03/05 14:41:37;;;;;;;3.42;2.65;;;;;;;5.65;51.36;100923.25;253059;1112;104421;-78
2021/03/05 14:46:39;;;;;;;4.95;2.52;;;;;;;6.81;47.49;100914.66;253279;1112;104686;-78
2021/03/05 14:51:40;;;;;;;2.25;1.87;;;;;;;4.65;50.94;100919.77;253430;1111;105054;-78
2021/03/05 14:56:41;;;;;;;5.75;2.17;;;;;;;4.43;51.72;100922.55;253318;1109;104344;-80
2021/03/05 15:01:42;;;;;;;3.37;2.50;;;;;;;4.57;51.70;100923.34;253403;1111;104341;-79
2021/03/05 15:06:44;;;;;;;2.85;2.20;;;;;;;4.10;52.39;100921.83;253137;1111;104370;-79
2021/03/05 15:11:45;;;;;;;2.30;1.98;;;;;;;3.28;55.47;100932.63;253254;1110;104268;-79
2021/03/05 15:16:46;;;;;;;3.20;2.42;;;;;;;2.92;56.56;100937.92;253118;1112;104344;-78
2021/03/05 15:21:48;;;;;;;5.03;3.45;;;;;;;2.80;57.66;100949.32;253186;1112;104274;-78
2021/03/05 15:26:49;;;;;;;4.67;3.12;;;;;;;2.55;58.88;100953.67;253163;1110;104228;-77
2021/03/05 15:31:50;;;;;;;4.17;3.60;;;;;;;2.45;60.23;100965.94;253070;1110;104289;-79
2021/03/05 15:36:52;;;;;;;11.15;4.30;;;;;;;2.30;59.33;100993.09;253197;1110;104325;-76
2021/03/05 15:41:53;;;;;;;5.30;2.92;;;;;;;2.05;64.52;101018.41;252637;1110;114384;-78
2021/03/05 15:46:55;;;;;;;5.20;2.60;;;;;;;2.21;71.03;101038.66;252872;1108;114275;-76
2021/03/05 15:51:56;;;;;;;3.80;2.60;;;;;;;1.31;92.74;101041.55;252877;1109;114290;-77
2021/03/05 15:56:57;;;;;;;4.35;2.72;;;;;;;0.89;98.26;101042.05;252714;1112;114289;-78
2021/03/05 16:01:59;;;;;;;9.13;5.90;;;;;;;0.92;92.56;101033.31;252774;1110;114379;-77
2021/03/05 16:07:00;;;;;;;7.72;5.95;;;;;;;0.82;88.42;101026.23;253579;1109;114341;-79
2021/03/05 16:12:02;;;;;;;4.22;2.30;;;;;;;0.74;86.93;101034.03;252821;1109;114549;-77
2021/03/05 16:17:03;;;;;;;4.87;2.98;;;;;;;0.57;91.04;101036.45;252894;1108;114296;-79
2021/03/05 16:22:05;;;;;;;5.92;4.15;;;;;;;0.34;90.61;101039.70;252751;1109;114291;-79
2021/03/05 16:27:06;;;;;;;13.68;10.08;;;;;;;0.18;88.92;101048.22;252795;1109;115454;-79
2021/03/05 16:32:08;;;;;;;10.45;8.10;;;;;;;0.14;92.95;101058.66;252623;1109;115158;-79
2021/03/05 16:37:11;;;;;;;12.00;8.83;;;;;;;-0.03;89.86;101063.67;252591;1109;114483;-79
2021/03/05 16:42:14;;;;;;;9.70;7.83;;;;;;;-0.31;94.53;101070.25;252541;1109;114601;-79
2021/03/05 16:47:15;;;;;;;9.85;7.65;;;;;;;-0.27;97.40;101089.53;252711;1108;114486;-78
2021/03/05 16:52:17;;;;;;;10.60;9.03;;;;;;;-0.56;96.22;101090.80;252983;1108;114971;-76
2021/03/05 16:57:19;;;;;;;11.18;8.05;;;;;;;-0.52;97.29;101102.20;253532;1109;114714;-79
2021/03/05 17:02:20;;;;;;;8.93;7.10;;;;;;;-0.63;96.49;101107.27;253043;1109;114969;-78
2021/03/05 17:07:21;;;;;;;8.90;6.55;;;;;;;-0.58;96.64;101117.83;253016;1108;114686;-79
2021/03/05 17:12:22;;;;;;;7.50;6.28;;;;;;;-0.53;98.27;101121.42;252733;1109;114698;-80
2021/03/05 17:17:24;;;;;;;6.53;5.77;;;;;;;-0.74;98.84;101129.77;252740;1109;114480;-79
2021/03/05 17:22:25;;;;;;;8.18;7.17;;;;;;;-0.83;99.29;101138.34;253054;1112;114622;-79
2021/03/05 17:27:27;;;;;;;10.75;7.70;;;;;;;-0.82;100.00;101143.60;254157;1109;114509;-82
2021/03/05 17:32:28;;;;;;;10.38;8.10;;;;;;;-0.77;99.64;101154.16;253460;1108;114795;-78
2021/03/05 17:37:29;;;;;;;12.25;9.10;;;;;;;-0.86;100.00;101154.88;252958;1109;114636;-79
2021/03/05 17:42:31;;;;;;;13.15;9.68;;;;;;;-0.94;100.00;101166.94;253294;1112;114808;-74
2021/03/05 17:47:32;;;;;;;18.90;12.17;;;;;;;-1.12;100.00;101165.70;256843;1109;114841;-77
2021/03/05 17:52:34;;;;;;;14.93;10.13;;;;;;;-1.00;100.00;101172.05;256052;1110;114926;-78
2021/03/05 17:57:35;;;;;;;17.23;11.00;;;;;;;-1.16;100.00;101171.73;256908;1111;114957;-77
2021/03/05 18:02:36;;;;;;;16.27;11.83;;;;;;;-0.99;100.00;101176.44;254580;1111;115431;-79
2021/03/05 18:07:38;;;;;;;15.65;12.50;;;;;;;-0.95;100.00;101180.87;253013;1109;115230;-79
2021/03/05 18:12:40;;;;;;;13.43;11.05;;;;;;;-1.17;100.00;101188.28;256538;1109;114969;-77
2021/03/05 18:17:43;;;;;;;22.55;14.10;;;;;;;-1.36;100.00;101193.98;256479;1112;115207;-78
2021/03/05 18:22:45;;;;;;;33.75;26.20;;;;;;;-1.64;100.00;101194.23;256756;1111;115027;-78
2021/03/05 18:27:48;;;;;;;37.07;27.17;;;;;;;-1.46;100.00;101208.59;253634;1112;115259;-79
2021/03/05 18:32:50;;;;;;;42.27;30.40;;;;;;;-1.38;100.00;101199.19;253886;1109;115313;-80
2021/03/05 18:37:52;;;;;;;38.63;27.15;;;;;;;-1.36;100.00;101204.44;253709;1109;115031;-79
2021/03/05 18:42:53;;;;;;;30.95;23.87;;;;;;;-1.43;100.00;101210.39;253193;1111;114985;-80
2021/03/05 18:47:55;;;;;;;30.02;22.10;;;;;;;-1.32;100.00;101216.72;253263;1112;114993;-80
2021/03/05 18:52:56;;;;;;;31.25;22.20;;;;;;;-1.35;100.00;101221.91;253211;1111;115350;-80
2021/03/05 18:57:57;;;;;;;32.35;20.57;;;;;;;-1.36;100.00;101235.83;253420;1112;114931;-78
2021/03/05 19:02:59;;;;;;;35.40;24.57;;;;;;;-1.61;100.00;101230.92;253048;1109;115012;-78
2021/03/05 19:08:00;;;;;;;37.90;23.98;;;;;;;-1.64;100.00;101240.43;252995;1109;114761;-79
2021/03/05 19:13:01;;;;;;;31.93;22.22;;;;;;;-1.66;100.00;101252.57;252981;1108;114070;-78
2021/03/05 19:18:03;;;;;;;39.07;25.90;;;;;;;-1.70;100.00;101261.20;253056;1109;114831;-80
2021/03/05 19:23:04;;;;;;;47.40;27.95;;;;;;;-1.74;100.00;101260.25;253057;1109;114992;-79
2021/03/05 19:28:06;;;;;;;42.33;28.50;;;;;;;-1.55;100.00;101266.77;252883;1109;115171;-79
2021/03/05 19:33:08;;;;;;;50.58;31.12;;;;;;;-1.54;100.00;101272.91;252877;1109;115079;-79
2021/03/05 19:38:09;;;;;;;43.10;26.95;;;;;;;-1.32;100.00;101280.41;253496;1109;114905;-79
2021/03/05 19:43:11;;;;;;;49.80;27.95;;;;;;;-1.20;100.00;101277.16;252962;1109;115287;-79
2021/03/05 19:48:13;;;;;;;40.38;24.23;;;;;;;-1.19;100.00;101278.94;253008;1109;114997;-79
2021/03/05 19:53:15;;;;;;;30.37;16.93;;;;;;;-1.01;98.60;101291.55;252925;1108;115217;-80
2021/03/05 19:58:16;;;;;;;16.48;9.93;;;;;;;-0.88;96.12;101295.33;252958;1109;114891;-79
2021/03/05 20:03:17;;;;;;;12.40;6.83;;;;;;;-0.76;94.06;101301.66;252875;1109;114933;-76
2021/03/05 20:08:19;;;;;;;13.98;7.22;;;;;;;-0.54;92.97;101316.10;253017;1109;114860;-79
2021/03/05 20:13:20;;;;;;;12.25;7.70;;;;;;;-0.54;92.47;101313.48;252979;1109;115184;-79
2021/03/05 20:18:22;;;;;;;11.55;7.90;;;;;;;-0.48;92.63;101313.60;253125;1109;114916;-80
2021/03/05 20:23:24;;;;;;;16.97;11.13;;;;;;;-0.76;98.93;101318.27;253008;1108;114810;-80
2021/03/05 20:28:25;;;;;;;4.75;3.47;;;;;;;-0.82;98.92;101316.39;252952;1109;114907;-80
2021/03/05 20:33:26;;;;;;;7.97;4.90;;;;;;;-0.75;98.85;101319.14;253032;1109;114491;-79
2021/03/05 20:38:27;;;;;;;7.33;5.37;;;;;;;-0.79;98.38;101322.55;253061;1109;114598;-80
2021/03/05 20:43:29;;;;;;;11.93;6.50;;;;;;;-0.74;97.77;101331.38;253539;1109;114527;-83
2021/03/05 20:48:30;;;;;;;11.60;6.78;;;;;;;-0.75;97.76;101335.75;253028;1108;115076;-81
2021/03/05 20:53:32;;;;;;;9.23;5.58;;;;;;;-0.82;98.37;101337.34;252685;1109;114942;-80
2021/03/05 20:58:33;;;;;;;11.45;6.10;;;;;;;-0.83;99.13;101346.04;252725;1110;114428;-80
2021/03/05 21:03:34;;;;;;;9.70;6.07;;;;;;;-0.73;99.04;101346.25;253029;1109;114543;-80
2021/03/05 21:08:36;;;;;;;12.85;5.55;;;;;;;-0.87;100.00;101351.17;252730;1112;114440;-77
2021/03/05 21:13:37;;;;;;;10.20;6.12;;;;;;;-0.78;99.94;101350.52;252669;1109;114878;-82
2021/03/05 21:18:38;;;;;;;11.05;7.05;;;;;;;-0.66;99.52;101353.39;252690;1110;114849;-79
2021/03/05 21:23:39;;;;;;;9.07;6.23;;;;;;;-0.66;100.00;101361.25;252666;1109;114913;-79
2021/03/05 21:28:41;;;;;;;7.53;5.00;;;;;;;-0.64;99.44;101356.94;252902;1112;114839;-80
2021/03/05 21:33:42;;;;;;;5.62;4.15;;;;;;;-0.70;100.00;101364.63;252714;1112;114797;-80
2021/03/05 21:38:44;;;;;;;7.12;4.15;;;;;;;-0.80;100.00;101360.92;252875;1111;114573;-79
2021/03/05 21:43:48;;;;;;;5.80;3.58;;;;;;;-0.96;100.00;101375.41;252724;1109;114630;-79
2021/03/05 21:48:50;;;;;;;6.33;4.33;;;;;;;-0.97;100.00;101360.55;253191;1110;104345;-77
2021/03/05 21:53:51;;;;;;;9.55;5.58;;;;;;;-0.87;100.00;101372.11;253321;1111;104402;-79
2021/03/05 21:58:52;;;;;;;9.07;5.63;;;;;;;-0.88;100.00;101371.23;253257;1110;104306;-80
2021/03/05 22:03:53;;;;;;;8.58;4.37;;;;;;;-0.89;100.00;101369.47;253201;1112;104265;-81
2021/03/05 22:08:55;;;;;;;5.45;3.22;;;;;;;-0.96;100.00;101378.03;253201;1112;104520;-79
2021/03/05 22:13:56;;;;;;;7.58;3.92;;;;;;;-0.90;100.00;101377.30;253330;1112;104315;-79
2021/03/05 22:18:57;;;;;;;5.27;3.70;;;;;;;-0.82;100.00;101383.59;253049;1112;104270;-80
2021/03/05 22:23:59;;;;;;;4.50;2.58;;;;;;;-1.03;100.00;101382.25;252798;1110;104730;-80
2021/03/05 22:29:00;;;;;;;2.22;1.67;;;;;;;-1.13;100.00;101396.83;254017;1112;104293;-81
2021/03/05 22:34:01;;;;;;;2.33;1.90;;;;;;;-1.20;100.00;101397.52;253945;1112;104216;-80
2021/03/05 22:39:03;;;;;;;3.17;2.17;;;;;;;-1.14;100.00;101400.31;253216;1112;104719;-81
2021/03/05 22:44:05;;;;;;;4.87;3.30;;;;;;;-1.25;100.00;101407.00;253098;1112;105514;-81
2021/03/05 22:49:07;;;;;;;5.35;3.83;;;;;;;-1.38;100.00;101404.92;253198;1112;104271;-80
2021/03/05 22:54:08;;;;;;;5.47;3.35;;;;;;;-1.37;100.00;101411.94;253162;1111;104638;-80